Bishop, Illinois
Current Conditions -  °F | °C
As of 10:54 PM on Wednesday 22 Oct 2014 (Local Time) from KPIA Reporting Station
Clear Clear  
Wind Chill: 43°   Ceiling: Unl
Heat Index: 43°   Visibility: 10mi
Dew Point: 37°   Wind: 0mph
Humidity: 80%   Direction: NA
Pressure: 30.26"   Gusts: NA
Location:  40.3389°N, 89.8274°W
Report Text: KPIA 230354Z 00000KT 10SM CLR 06/03 A3026 RMK AO2 SLP250 T00610028
Loading
Personal Weather Stations






























Interactive Weather Map
Tropical Storm Tracking
New forecast layout! Learn more

10-Day Weather Forecast

Advertisements
Track Severe Weather on mobile